This is the latest recevied weather packets stored in our database for station/object VK3HAG. If no packets are shown the sender has not sent any weather packets the latest 10 day(s).
| Time | Temp. | Humidity | Pressure | Rain* | Wind** | Luminosity | Snow |
|---|---|---|---|---|---|---|---|
| 1787385604 | 12.78° C | 75% | 1023.2 hPa | 0 mm | - | - | - |
| 1787384704 | 13.33° C | 73% | 1023.1 hPa | 0 mm | - | - | - |
| 1787383804 | 13.89° C | 70% | 1023 hPa | 0 mm | - | - | - |
| 1787382905 | 13.89° C | 65% | 1022.8 hPa | 0 mm | - | - | - |
| 1787382005 | 14.44° C | 63% | 1022.6 hPa | 0 mm | - | - | - |
| 1787381104 | 14.44° C | 64% | 1022.5 hPa | 0 mm | - | - | - |
| 1787380205 | 14.44° C | 64% | 1022.4 hPa | 0 mm | - | - | - |
| 1787379305 | 15° C | 64% | 1022.2 hPa | 0 mm | - | - | - |
| 1787378405 | 15° C | 69% | 1022.1 hPa | 0 mm | - | - | - |
| 1787377504 | 15.56° C | 69% | 1021.9 hPa | 0 mm | - | - | - |
| 1787376605 | 15° C | 73% | 1021.9 hPa | 0 mm | - | - | - |
| 1787375704 | 15.56° C | 69% | 1021.7 hPa | 0 mm | - | - | - |
| 1787374804 | 15.56° C | 69% | 1021.5 hPa | 0 mm | - | - | - |
| 1787373904 | 15.56° C | 66% | 1021.4 hPa | 0 mm | - | - | - |
| 1787373005 | 16.11° C | 65% | 1021.2 hPa | 0 mm | - | - | - |
| 1787372104 | 16.11° C | 65% | 1021.2 hPa | 0 mm | - | - | - |
| 1787371205 | 16.11° C | 65% | 1021.1 hPa | 0 mm | - | - | - |
| 1787370305 | 16.67° C | 66% | 1021 hPa | 0 mm | - | - | - |
| 1787369404 | 16.67° C | 65% | 1021.1 hPa | 0 mm | - | - | - |
| 1787368505 | 15.56° C | 73% | 1021.3 hPa | 0 mm | - | - | - |
| 1787367604 | 15.56° C | 73% | 1021.6 hPa | 0 mm | - | - | - |
| 1787366704 | 14.44° C | 76% | 1021.9 hPa | 0 mm | - | - | - |
| 1787365804 | 14.44° C | 74% | 1022.1 hPa | 0 mm | - | - | - |
| 1787364904 | 14.44° C | 74% | 1022.2 hPa | 0 mm | - | - | - |
| 1787364005 | 14.44° C | 73% | 1022.1 hPa | 0 mm | - | - | - |
* Rain latest hour (hover to see other rain measurements)
** Current wind speed in m/s (hover to see current wind gust speed)